HOLLY-2 Weather Reports


Display with metric or nautical units.
time (UTC)temp
F
wind
direction
speed
MPH
gust
MPH
rain 1hr
in
rain 24hr
in
rain mn
in
humidity
%
barometer
mb
20221003152003 59 315 1.0 2.0 0.00 0.00 0.00 52 1026.7
20221003151503 59 135 1.0 2.0 0.00 0.00 0.00 53 1026.8
20221003150502 58 135 0.0 0.0 0.00 0.00 0.00 57 1026.8
20221003150002 57 135 0.0 1.0 0.00 0.00 0.00 61 1026.8
20221003145502 56 90 2.0 3.0 0.00 0.00 0.00 65 1026.8
20221003145003 55 135 2.0 4.0 0.00 0.00 0.00 71 1026.8
20221003144503 54 135 3.0 6.0 0.00 0.00 0.00 90 1026.8
20221003144002 53 135 0.0 1.0 0.00 0.00 0.00 95 1026.8
20221003143503 52 180 1.0 1.0 0.00 0.00 0.00 97 1026.8
20221003143003 51 180 0.0 0.0 0.00 0.00 0.00 97 1026.8
20221003142503 51 113 2.0 6.0 0.00 0.00 0.00 97 1026.8
20221003142002 50 135 1.0 1.0 0.00 0.00 0.00 98 1026.8
20221003141502 49 90 2.0 4.0 0.00 0.00 0.00 98 1026.8
20221003141002 48 225 0.0 0.0 0.00 0.00 0.00 98 1026.7
20221003140503 48 45 1.0 2.0 0.00 0.00 0.00 98 1026.7
20221003140002 47 135 1.0 2.0 0.00 0.00 0.00 99 1026.8
20221003135003 45 135 0.0 0.0 0.00 0.00 0.00 99 1026.7
20221003134502 44 90 0.0 0.0 0.00 0.00 0.00 10 1026.7
20221003134002 43 180 0.0 0.0 0.00 0.00 0.00 10 1026.5
20221003133503 41 180 0.0 0.0 0.00 0.00 0.00 10 1026.5
20221003133003 40 180 0.0 0.0 0.00 0.00 0.00 10 1026.5
20221003132502 38 180 0.0 0.0 0.00 0.00 0.00 10 1026.5
20221003132002 37 180 0.0 0.0 0.00 0.00 0.00 10 1026.5
20221003131502 36 180 0.0 0.0 0.00 0.00 0.00 10 1026.4
20221003131003 35 180 0.0 0.0 0.00 0.00 0.00 10 1026.4
20221003130503 35 135 0.0 0.0 0.00 0.00 0.00 10 1026.4
20221003130002 34 135 0.0 0.0 0.00 0.00 0.00 10 1026.3
20221003125502 33 135 0.0 0.0 0.00 0.00 0.00 10 1026.3
20221003125002 33 135 0.0 0.0 0.00 0.00 0.00 10 1026.3
20221003124502 33 135 0.0 0.0 0.00 0.00 0.00 10 1026.2
20221003124002 32 135 0.0 0.0 0.00 0.00 0.00 10 1026.2
20221003123502 32 135 0.0 0.0 0.00 0.00 0.00 10 1026.1
20221003123002 31 135 0.0 0.0 0.00 0.00 0.00 10 1026.0
20221003122503 31 135 0.0 0.0 0.00 0.00 0.00 10 1025.9
20221003122003 31 135 0.0 0.0 0.00 0.00 0.00 10 1025.8
20221003121502 31 135 0.0 0.0 0.00 0.00 0.00 10 1025.8
20221003121002 30 135 0.0 0.0 0.00 0.00 0.00 10 1025.7
20221003120502 30 135 0.0 0.0 0.00 0.00 0.00 99 1025.7
20221003120003 30 315 0.0 0.0 0.00 0.00 0.00 10 1025.6
20221003115503 30 315 0.0 0.0 0.00 0.00 0.00 10 1025.6
20221003115002 30 315 0.0 0.0 0.00 0.00 0.00 10 1025.6
20221003114502 29 180 0.0 0.0 0.00 0.00 0.00 99 1025.5
20221003114002 30 180 0.0 0.0 0.00 0.00 0.00 10 1025.6
20221003113503 30 180 0.0 0.0 0.00 0.00 0.00 10 1025.5
20221003113003 29 180 0.0 0.0 0.00 0.00 0.00 10 1025.5
20221003112502 30 180 0.0 0.0 0.00 0.00 0.00 99 1025.5
20221003112002 30 180 0.0 0.0 0.00 0.00 0.00 10 1025.5
20221003111502 30 180 0.0 0.0 0.00 0.00 0.00 99 1025.4
20221003111003 30 180 0.0 0.0 0.00 0.00 0.00 10 1025.3
20221003110502 30 180 0.0 0.0 0.00 0.00 0.00 10 1025.2
20221003110002 31 180 0.0 0.0 0.00 0.00 0.00 10 1025.2
20221003105502 30 180 0.0 0.0 0.00 0.00 0.00 10 1025.1
20221003105002 30 180 0.0 0.0 0.00 0.00 0.00 99 1025.0
20221003104503 30 0 0.0 0.0 0.00 0.00 0.00 99 1025.0
20221003104003 31 0 0.0 0.0 0.00 0.00 0.00 10 1025.1
20221003103502 31 0 0.0 0.0 0.00 0.00 0.00 10 1025.1
20221003103002 30 0 0.0 0.0 0.00 0.00 0.00 99 1025.0
20221003102502 30 0 0.0 0.0 0.00 0.00 0.00 10 1024.9
20221003102003 30 0 0.0 0.0 0.00 0.00 0.00 99 1024.8
20221003101502 30 0 0.0 0.0 0.00 0.00 0.00 10 1024.7
20221003101002 30 0 0.0 0.0 0.00 0.00 0.00 99 1024.6
20221003100502 30 0 0.0 0.0 0.00 0.00 0.00 99 1024.6
20221003100002 31 0 0.0 0.0 0.00 0.00 0.00 10 1024.7
20221003095502 31 0 0.0 0.0 0.00 0.00 0.00 10 1024.6
20221003095002 30 90 0.0 0.0 0.00 0.00 0.00 99 1024.6
20221003094503 31 90 0.0 0.0 0.00 0.00 0.00 99 1024.5
20221003094003 31 225 0.0 0.0 0.00 0.00 0.00 10 1024.5
20221003093503 30 225 0.0 0.0 0.00 0.00 0.00 99 1024.4
20221003093002 31 225 0.0 0.0 0.00 0.00 0.00 99 1024.4
20221003092502 31 225 0.0 0.0 0.00 0.00 0.00 99 1024.4
20221003092003 31 225 0.0 0.0 0.00 0.00 0.00 99 1024.3
20221003091503 31 225 0.0 0.0 0.00 0.00 0.00 99 1024.4
20221003091002 31 225 0.0 0.0 0.00 0.00 0.00 99 1024.3
20221003090502 31 225 0.0 0.0 0.00 0.00 0.00 99 1024.3
20221003090002 31 225 0.0 0.0 0.00 0.00 0.00 99 1024.5
20221003085503 31 225 0.0 0.0 0.00 0.00 0.00 99 1024.3
20221003085003 31 225 0.0 0.0 0.00 0.00 0.00 99 1024.4
20221003084502 31 225 0.0 0.0 0.00 0.00 0.00 99 1024.4
20221003084002 32 90 0.0 0.0 0.00 0.00 0.00 99 1024.4
20221003083502 32 90 0.0 0.0 0.00 0.00 0.00 99 1024.4
20221003083003 32 90 0.0 0.0 0.00 0.00 0.00 99 1024.4
20221003082503 32 90 0.0 0.0 0.00 0.00 0.00 99 1024.4
20221003082002 32 90 0.0 0.0 0.00 0.00 0.00 99 1024.4
20221003081502 32 90 0.0 0.0 0.00 0.00 0.00 99 1024.4
20221003081002 33 90 0.0 0.0 0.00 0.00 0.00 99 1024.4
20221003080502 33 90 0.0 0.0 0.00 0.00 0.00 99 1024.5
20221003080002 33 90 0.0 0.0 0.00 0.00 0.00 99 1024.5
20221003075502 33 90 0.0 0.0 0.00 0.00 0.00 99 1024.6
20221003075003 33 90 0.0 0.0 0.00 0.00 0.00 99 1024.6
20221003074502 33 90 0.0 0.0 0.00 0.00 0.00 99 1024.7
20221003074003 33 90 0.0 0.0 0.00 0.00 0.00 99 1024.7
20221003073502 34 90 0.0 0.0 0.00 0.00 0.00 99 1024.7
20221003073002 34 90 0.0 0.0 0.00 0.00 0.00 98 1024.8
20221003072502 35 90 0.0 0.0 0.00 0.00 0.00 99 1024.9
20221003072003 35 90 0.0 0.0 0.00 0.00 0.00 99 1025.0
20221003071503 34 135 0.0 0.0 0.00 0.00 0.00 99 1024.8
20221003071003 35 135 0.0 0.0 0.00 0.00 0.00 99 1024.9
20221003070503 35 135 0.0 0.0 0.00 0.00 0.00 99 1025.0
20221003070002 35 135 0.0 0.0 0.00 0.00 0.00 98 1025.0
20221003065502 35 135 0.0 0.0 0.00 0.00 0.00 98 1025.1
20221003065003 35 180 0.0 0.0 0.00 0.00 0.00 99 1025.1
20221003064503 35 180 0.0 0.0 0.00 0.00 0.00 99 1025.1
20221003064002 35 180 0.0 0.0 0.00 0.00 0.00 98 1025.0
20221003063502 35 180 0.0 0.0 0.00 0.00 0.00 98 1025.1
20221003063002 35 180 0.0 0.0 0.00 0.00 0.00 99 1025.1
20221003062502 35 90 0.0 0.0 0.00 0.00 0.00 99 1025.2
20221003062002 35 0 0.0 0.0 0.00 0.00 0.00 98 1025.1
20221003061503 36 0 0.0 0.0 0.00 0.00 0.00 98 1025.1
20221003061003 36 0 0.0 0.0 0.00 0.00 0.00 99 1025.1
20221003060502 36 225 0.0 0.0 0.00 0.00 0.00 99 1025.1
20221003060002 35 225 0.0 0.0 0.00 0.00 0.00 98 1025.0
20221003055502 36 225 0.0 0.0 0.00 0.00 0.00 99 1025.1
20221003055002 36 225 0.0 0.0 0.00 0.00 0.00 98 1025.2
20221003054502 36 225 0.0 0.0 0.00 0.00 0.00 98 1025.2
20221003054002 36 225 0.0 0.0 0.00 0.00 0.00 98 1025.2
20221003053503 36 225 0.0 0.0 0.00 0.00 0.00 98 1025.2
20221003053003 36 225 0.0 0.0 0.00 0.00 0.00 98 1025.3
20221003052503 36 180 0.0 0.0 0.00 0.00 0.00 98 1025.4
20221003052002 36 180 0.0 0.0 0.00 0.00 0.00 98 1025.3
20221003051502 36 180 0.0 0.0 0.00 0.00 0.00 98 1025.3
20221003051003 36 180 0.0 0.0 0.00 0.00 0.00 98 1025.4
20221003050503 36 180 0.0 0.0 0.00 0.00 0.00 98 1025.4
20221003050002 36 180 0.0 0.0 0.00 0.00 0.00 98 1025.5
20221003045502 37 180 0.0 0.0 0.00 0.00 0.00 98 1025.5
20221003045002 36 180 0.0 0.0 0.00 0.00 0.00 97 1025.5
20221003044503 37 180 0.0 0.0 0.00 0.00 0.00 97 1025.5
20221003044003 37 180 0.0 0.0 0.00 0.00 0.00 97 1025.5
20221003043502 37 180 0.0 0.0 0.00 0.00 0.00 97 1025.5
20221003043002 37 180 0.0 0.0 0.00 0.00 0.00 97 1025.5
20221003042502 37 180 0.0 0.0 0.00 0.00 0.00 97 1025.5
20221003042003 37 180 0.0 0.0 0.00 0.00 0.00 97 1025.5
20221003041503 38 135 0.0 0.0 0.00 0.00 0.00 97 1025.5
20221003041002 38 135 0.0 0.0 0.00 0.00 0.00 97 1025.4
20221003040502 38 135 0.0 0.0 0.00 0.00 0.00 97 1025.4
20221003040002 38 135 0.0 0.0 0.00 0.00 0.00 97 1025.4
20221003035502 38 180 0.0 0.0 0.00 0.00 0.00 97 1025.5
20221003035002 38 180 0.0 0.0 0.00 0.00 0.00 97 1025.5
20221003034502 38 180 0.0 0.0 0.00 0.00 0.00 96 1025.4
20221003034002 38 180 0.0 0.0 0.00 0.00 0.00 96 1025.5
20221003033502 38 135 0.0 0.0 0.00 0.00 0.00 96 1025.5
20221003033002 38 135 0.0 0.0 0.00 0.00 0.00 95 1025.5
20221003032503 39 135 0.0 0.0 0.00 0.00 0.00 95 1025.5
20221003032002 39 135 0.0 0.0 0.00 0.00 0.00 95 1025.5
20221003031503 39 135 0.0 0.0 0.00 0.00 0.00 95 1025.5
20221003031002 39 135 0.0 0.0 0.00 0.00 0.00 94 1025.5
20221003030502 39 180 0.0 0.0 0.00 0.00 0.00 94 1025.5
20221003030002 40 180 0.0 0.0 0.00 0.00 0.00 94 1025.5
20221003025503 40 180 0.0 0.0 0.00 0.00 0.00 93 1025.5
20221003025002 40 135 0.0 0.0 0.00 0.00 0.00 92 1025.6
20221003024502 40 135 0.0 0.0 0.00 0.00 0.00 92 1025.7
20221003024002 41 135 0.0 0.0 0.00 0.00 0.00 91 1025.7
20221003023502 41 135 0.0 0.0 0.00 0.00 0.00 90 1025.5
20221003023002 41 135 0.0 0.0 0.00 0.00 0.00 90 1025.6
20221003022503 42 180 0.0 0.0 0.00 0.00 0.00 90 1025.6
20221003022003 42 135 0.0 0.0 0.00 0.00 0.00 89 1025.5
20221003021502 42 135 0.0 0.0 0.00 0.00 0.00 89 1025.5
20221003021002 42 135 1.0 3.0 0.00 0.00 0.00 88 1025.5
20221003020502 43 90 0.0 0.0 0.00 0.00 0.00 88 1025.6
20221003020002 43 180 0.0 2.0 0.00 0.00 0.00 87 1025.5
20221003015502 43 135 0.0 1.0 0.00 0.00 0.00 87 1025.5
20221003015002 43 135 1.0 4.0 0.00 0.00 0.00 85 1025.5
20221003014503 44 135 0.0 0.0 0.00 0.00 0.00 85 1025.6
20221003014003 44 90 1.0 4.0 0.00 0.00 0.00 85 1025.5
20221003013502 44 135 0.0 0.0 0.00 0.00 0.00 84 1025.4
20221003013002 44 135 0.0 1.0 0.00 0.00 0.00 83 1025.4
20221003012502 45 135 1.0 3.0 0.00 0.00 0.00 82 1025.5
20221003012003 45 90 1.0 3.0 0.00 0.00 0.00 82 1025.5
20221003011503 45 135 0.0 2.0 0.00 0.00 0.00 82 1025.3
20221003011003 45 135 0.0 1.0 0.00 0.00 0.00 82 1025.2
20221003010503 45 135 0.0 2.0 0.00 0.00 0.00 82 1025.2
20221003010002 45 90 0.0 0.0 0.00 0.00 0.00 81 1025.2
20221003005502 45 180 0.0 0.0 0.00 0.00 0.00 81 1025.1
20221003005002 44 90 0.0 0.0 0.00 0.00 0.00 80 1025.0
20221003004502 44 0 3.0 8.0 0.00 0.00 0.00 81 1025.1
20221003004002 44 180 0.0 0.0 0.00 0.00 0.00 79 1025.0
20221003003502 44 180 0.0 0.0 0.00 0.00 0.00 78 1025.0
20221003003002 45 135 0.0 0.0 0.00 0.00 0.00 77 1025.0
20221003002502 45 135 0.0 0.0 0.00 0.00 0.00 76 1024.9
20221003002002 45 135 1.0 3.0 0.00 0.00 0.00 76 1024.9
20221003001503 46 135 0.0 0.0 0.00 0.00 0.00 74 1024.9
20221003001003 46 180 0.0 0.0 0.00 0.00 0.00 73 1024.7
20221003000502 46 135 0.0 0.0 0.00 0.00 0.00 72 1024.7
20221003000002 47 135 0.0 0.0 0.00 0.00 0.00 71 1024.7
20221002235502 47 180 0.0 1.0 0.00 0.00 0.00 70 1024.7
20221002235003 48 180 0.0 0.0 0.00 0.00 0.00 68 1024.7
20221002234502 48 135 0.0 0.0 0.00 0.00 0.00 66 1024.7
20221002234003 49 135 0.0 1.0 0.00 0.00 0.00 65 1024.7
20221002233503 50 135 0.0 0.0 0.00 0.00 0.00 63 1024.6
20221002233002 51 135 0.0 0.0 0.00 0.00 0.00 61 1024.6
20221002232502 51 90 1.0 2.0 0.00 0.00 0.00 60 1024.6
20221002232003 51 90 0.0 1.0 0.00 0.00 0.00 58 1024.5
20221002231502 52 90 0.0 1.0 0.00 0.00 0.00 57 1024.6
20221002231002 53 135 1.0 6.0 0.00 0.00 0.00 56 1024.5
20221002230502 53 45 0.0 0.0 0.00 0.00 0.00 54 1024.5
20221002230003 54 135 0.0 1.0 0.00 0.00 0.00 53 1024.5
20221002225503 55 45 1.0 3.0 0.00 0.00 0.00 53 1024.4
20221002225003 55 180 1.0 4.0 0.00 0.00 0.00 52 1024.4
20221002224502 56 135 1.0 3.0 0.00 0.00 0.00 50 1024.2
20221002224002 56 45 3.0 8.0 0.00 0.00 0.00 50 1024.2
20221002223502 57 293 0.0 1.0 0.00 0.00 0.00 51 1024.1
20221002223003 57 0 1.0 3.0 0.00 0.00 0.00 50 1024.1
20221002222503 57 135 1.0 3.0 0.00 0.00 0.00 51 1024.0
20221002222002 58 90 2.0 12.0 0.00 0.00 0.00 49 1024.0
20221002221502 58 270 0.0 3.0 0.00 0.00 0.00 47 1024.0
20221002221002 59 135 2.0 6.0 0.00 0.00 0.00 46 1023.9
20221002220002 60 90 4.0 13.0 0.00 0.00 0.00 43 1023.9
20221002215502 60 135 2.0 9.0 0.00 0.00 0.00 44 1024.0
20221002215003 61 135 1.0 4.0 0.00 0.00 0.00 43 1023.9
20221002214503 62 225 1.0 6.0 0.00 0.00 0.00 42 1023.8
20221002214003 62 315 1.0 3.0 0.00 0.00 0.00 43 1023.9
20221002213502 63 90 1.0 5.0 0.00 0.00 0.00 44 1023.8
20221002213003 63 23 1.0 6.0 0.00 0.00 0.00 44 1023.9
20221002212503 63 135 2.0 6.0 0.00 0.00 0.00 44 1023.8
20221002212004 63 225 1.0 4.0 0.00 0.00 0.00 45 1023.9
20221002211503 64 270 2.0 7.0 0.00 0.00 0.00 44 1023.8
20221002211003 64 45 1.0 8.0 0.00 0.00 0.00 43 1023.8
20221002210502 65 90 1.0 6.0 0.00 0.00 0.00 43 1023.8
20221002205503 65 90 3.0 8.0 0.00 0.00 0.00 41 1023.8
20221002205002 65 135 1.0 4.0 0.00 0.00 0.00 42 1023.8
20221002204502 65 90 1.0 4.0 0.00 0.00 0.00 41 1023.8
20221002204002 65 45 2.0 6.0 0.00 0.00 0.00 41 1023.9
20221002203503 66 90 1.0 2.0 0.00 0.00 0.00 40 1023.9
20221002203002 66 135 1.0 4.0 0.00 0.00 0.00 41 1023.9
20221002202003 66 135 2.0 12.0 0.00 0.00 0.00 41 1023.8
20221002201503 66 135 3.0 8.0 0.00 0.00 0.00 42 1023.8
20221002201002 66 0 2.0 6.0 0.00 0.00 0.00 42 1024.0
20221002200502 66 135 2.0 7.0 0.00 0.00 0.00 40 1024.0
20221002200002 66 180 1.0 3.0 0.00 0.00 0.00 44 1024.0
20221002195502 65 338 2.0 4.0 0.00 0.00 0.00 43 1024.0
20221002195007 32 0 0.0 0.0 0.00 0.00 0.00 100
20221002194002 66 90 2.0 9.0 0.00 0.00 0.00 44 1024.0
20221002193507 66 135 1.0 4.0 0.00 0.00 0.00 46 1023.9
20221002193003 65 135 5.0 15.0 0.00 0.00 0.00 45 1023.9
20221002192002 66 68 2.0 7.0 0.00 0.00 0.00 47 1024.0
20221002191503 65 135 3.0 9.0 0.00 0.00 0.00 46 1024.1
20221002191002 65 0 2.0 6.0 0.00 0.00 0.00 45 1024.1
20221002190002 64 45 3.0 9.0 0.00 0.00 0.00 46 1024.1
20221002185503 64 135 4.0 9.0 0.00 0.00 0.00 45 1024.2
20221002185003 64 135 3.0 8.0 0.00 0.00 0.00 51 1024.3
20221002184502 64 90 1.0 4.0 0.00 0.00 0.00 49 1024.3
20221002184002 63 158 3.0 9.0 0.00 0.00 0.00 49 1024.3
20221002182503 62 270 2.0 7.0 0.00 0.00 0.00 51 1024.4
20221002182003 62 45 5.0 12.0 0.00 0.00 0.00 50 1024.6
20221002181502 62 135 2.0 9.0 0.00 0.00 0.00 54 1024.5
20221002181002 62 158 3.0 7.0 0.00 0.00 0.00 52 1024.7
20221002180502 62 90 4.0 9.0 0.00 0.00 0.00 52 1024.6
20221002180002 62 135 3.0 59.0 0.00 0.00 0.00 52 1024.6
20221002175502 62 0 2.0 7.0 0.00 0.00 0.00 51 1024.8
20221002175003 62 68 3.0 9.0 0.00 0.00 0.00 53 1024.8
20221002174502 62 90 1.0 6.0 0.00 0.00 0.00 54 1024.7
20221002174002 62 180 3.0 12.0 0.00 0.00 0.00 53 1024.7
20221002172003 62 90 3.0 10.0 0.00 0.00 0.00 51 1024.7
20221002171002 62 180 1.0 6.0 0.00 0.00 0.00 51 1024.8
20221002170503 62 90 3.0 8.0 0.00 0.00 0.00 51 1024.8
20221002170002 63 135 5.0 14.0 0.00 0.00 0.00 51 1024.8
20221002165502 62 90 3.0 13.0 0.00 0.00 0.00 52 1024.7
20221002164003 62 90 1.0 2.0 0.00 0.00 0.00 53 1024.9
20221002163503 62 135 4.0 12.0 0.00 0.00 0.00 54 1024.8
20221002163004 62 135 2.0 8.0 0.00 0.00 0.00 54 1024.8
20221002162502 63 90 2.0 9.0 0.00 0.00 0.00 56 1025.0
20221002162002 62 90 3.0 9.0 0.00 0.00 0.00 56 1024.9
20221002161503 62 90 5.0 10.0 0.00 0.00 0.00 56 1024.9
20221002161003 62 90 2.0 6.0 0.00 0.00 0.00 57 1025.1
20221002160502 32 0 0.0 0.0 0.00 0.00 0.00 100
20221002155503 61 158 3.0 8.0 0.00 0.00 0.00 56 1025.2
20221002155003 61 90 4.0 9.0 0.00 0.00 0.00 58 1025.1
20221002154503 61 0 2.0 6.0 0.00 0.00 0.00 59 1025.2
20221002154003 61 135 3.0 9.0 0.00 0.00 0.00 60 1025.1
20221002153503 61 45 3.0 8.0 0.00 0.00 0.00 58 1025.1
20221002153003 61 180 1.0 6.0 0.00 0.00 0.00 62 1025.2
20221002152503 60 135 2.0 5.0 0.00 0.00 0.00 63 1025.0